sensor_id;sensor_type;location;lat;lon;timestamp;pressure;altitude;pressure_sealevel;temperature;humidity
10008;BME280;5043;41.766;26.204;2023-05-03T00:01:33;101550.38;;;10.86;81.33
10008;BME280;5043;41.766;26.204;2023-05-03T00:03:58;101489.25;;;10.34;81.78
10008;BME280;5043;41.766;26.204;2023-05-03T00:06:24;101547.22;;;10.66;82.01
10008;BME280;5043;41.766;26.204;2023-05-03T00:08:49;101561.28;;;10.51;82.58
10008;BME280;5043;41.766;26.204;2023-05-03T00:11:15;101548.09;;;10.51;82.60
10008;BME280;5043;41.766;26.204;2023-05-03T00:13:41;101545.25;;;10.40;82.55
10008;BME280;5043;41.766;26.204;2023-05-03T00:16:06;101546.97;;;10.41;83.07
10008;BME280;5043;41.766;26.204;2023-05-03T00:18:32;101546.41;;;10.50;82.27
10008;BME280;5043;41.766;26.204;2023-05-03T00:20:58;101552.09;;;10.58;81.99
10008;BME280;5043;41.766;26.204;2023-05-03T00:23:24;101538.41;;;10.51;82.05
10008;BME280;5043;41.766;26.204;2023-05-03T00:25:56;101560.50;;;10.64;81.89
10008;BME280;5043;41.766;26.204;2023-05-03T00:28:23;101495.06;;;10.25;81.24
10008;BME280;5043;41.766;26.204;2023-05-03T00:30:49;101558.38;;;10.55;80.96
10008;BME280;5043;41.766;26.204;2023-05-03T00:33:15;101475.88;;;10.08;81.03
10008;BME280;5043;41.766;26.204;2023-05-03T00:35:41;101529.41;;;10.40;81.17
10008;BME280;5043;41.766;26.204;2023-05-03T00:38:07;101549.06;;;10.50;81.56
10008;BME280;5043;41.766;26.204;2023-05-03T00:40:32;101482.69;;;10.12;81.06
10008;BME280;5043;41.766;26.204;2023-05-03T00:42:57;101546.38;;;10.35;81.94
10008;BME280;5043;41.766;26.204;2023-05-03T00:45:23;101545.41;;;10.36;82.48
10008;BME280;5043;41.766;26.204;2023-05-03T00:47:48;101550.28;;;10.28;82.64
10008;BME280;5043;41.766;26.204;2023-05-03T00:50:14;101552.34;;;10.23;83.09
10008;BME280;5043;41.766;26.204;2023-05-03T00:52:39;101547.81;;;10.25;82.57
10008;BME280;5043;41.766;26.204;2023-05-03T00:55:06;101541.94;;;10.20;83.15
10008;BME280;5043;41.766;26.204;2023-05-03T00:57:32;101555.13;;;10.20;82.79
10008;BME280;5043;41.766;26.204;2023-05-03T00:59:57;101563.81;;;10.07;83.17
10008;BME280;5043;41.766;26.204;2023-05-03T01:02:23;101574.72;;;10.16;83.34
10008;BME280;5043;41.766;26.204;2023-05-03T01:04:50;101530.28;;;10.09;83.40
10008;BME280;5043;41.766;26.204;2023-05-03T01:07:50;101559.50;;;10.21;83.52
10008;BME280;5043;41.766;26.204;2023-05-03T01:13:09;101540.88;;;10.24;83.63
10008;BME280;5043;41.766;26.204;2023-05-03T01:18:39;101546.38;;;10.20;83.10
10008;BME280;5043;41.766;26.204;2023-05-03T01:21:09;101544.09;;;10.14;83.96
10008;BME280;5043;41.766;26.204;2023-05-03T01:23:48;101544.31;;;10.09;84.03
10008;BME280;5043;41.766;26.204;2023-05-03T01:26:18;101536.31;;;10.11;85.72
10008;BME280;5043;41.766;26.204;2023-05-03T01:28:45;101527.56;;;9.95;86.92
10008;BME280;5043;41.766;26.204;2023-05-03T01:31:20;101537.00;;;9.99;89.07
10008;BME280;5043;41.766;26.204;2023-05-03T01:34:08;101513.78;;;9.90;92.02
10008;BME280;5043;41.766;26.204;2023-05-03T01:36:39;101457.81;;;9.39;92.67
10008;BME280;5043;41.766;26.204;2023-05-03T01:39:11;101540.31;;;9.71;93.41
10008;BME280;5043;41.766;26.204;2023-05-03T01:41:39;101562.97;;;9.75;93.63
10008;BME280;5043;41.766;26.204;2023-05-03T01:44:06;101545.78;;;9.68;94.33
10008;BME280;5043;41.766;26.204;2023-05-03T01:46:33;101537.59;;;9.57;95.58
10008;BME280;5043;41.766;26.204;2023-05-03T01:48:58;101540.81;;;9.62;95.52
10008;BME280;5043;41.766;26.204;2023-05-03T01:51:24;101517.47;;;9.56;95.25
10008;BME280;5043;41.766;26.204;2023-05-03T01:53:50;101535.25;;;9.68;95.55
10008;BME280;5043;41.766;26.204;2023-05-03T01:56:16;101553.06;;;9.63;95.04
10008;BME280;5043;41.766;26.204;2023-05-03T01:58:42;101521.72;;;9.58;94.21
10008;BME280;5043;41.766;26.204;2023-05-03T02:01:07;101524.25;;;9.60;92.97
10008;BME280;5043;41.766;26.204;2023-05-03T02:03:33;101535.91;;;9.56;92.39
10008;BME280;5043;41.766;26.204;2023-05-03T02:05:58;101535.72;;;9.59;92.02
10008;BME280;5043;41.766;26.204;2023-05-03T02:08:24;101524.66;;;9.52;91.61
10008;BME280;5043;41.766;26.204;2023-05-03T02:10:49;101479.47;;;9.44;91.18
10008;BME280;5043;41.766;26.204;2023-05-03T02:13:15;101445.41;;;9.26;90.99
10008;BME280;5043;41.766;26.204;2023-05-03T02:15:40;101475.13;;;9.43;90.30
10008;BME280;5043;41.766;26.204;2023-05-03T02:18:06;101534.97;;;9.88;89.11
10008;BME280;5043;41.766;26.204;2023-05-03T02:20:33;101518.16;;;9.75;87.89
10008;BME280;5043;41.766;26.204;2023-05-03T02:23:03;101528.09;;;9.86;87.60
10008;BME280;5043;41.766;26.204;2023-05-03T02:25:28;101529.19;;;9.97;87.08
10008;BME280;5043;41.766;26.204;2023-05-03T02:27:54;101515.59;;;10.05;85.88
10008;BME280;5043;41.766;26.204;2023-05-03T02:30:19;101534.91;;;10.21;85.32
10008;BME280;5043;41.766;26.204;2023-05-03T02:32:45;101553.25;;;10.22;85.75
10008;BME280;5043;41.766;26.204;2023-05-03T02:35:10;101474.38;;;9.88;86.14
10008;BME280;5043;41.766;26.204;2023-05-03T02:37:36;101533.44;;;10.31;87.06
10008;BME280;5043;41.766;26.204;2023-05-03T02:40:02;101555.91;;;10.38;88.57
10008;BME280;5043;41.766;26.204;2023-05-03T02:42:29;101535.44;;;10.42;89.94
10008;BME280;5043;41.766;26.204;2023-05-03T02:44:55;101534.91;;;10.21;91.65
10008;BME280;5043;41.766;26.204;2023-05-03T02:47:21;101535.97;;;10.01;93.05
10008;BME280;5043;41.766;26.204;2023-05-03T02:49:46;101542.59;;;10.08;94.10
10008;BME280;5043;41.766;26.204;2023-05-03T02:52:12;101561.78;;;10.12;94.69
10008;BME280;5043;41.766;26.204;2023-05-03T02:54:38;101543.66;;;10.21;94.93
10008;BME280;5043;41.766;26.204;2023-05-03T02:57:04;101551.31;;;10.10;95.07
10008;BME280;5043;41.766;26.204;2023-05-03T02:59:30;101546.72;;;10.14;95.37
10008;BME280;5043;41.766;26.204;2023-05-03T03:01:57;101547.22;;;10.20;95.62
10008;BME280;5043;41.766;26.204;2023-05-03T03:04:22;101536.78;;;10.19;95.10
10008;BME280;5043;41.766;26.204;2023-05-03T03:06:48;101548.34;;;10.16;95.23
10008;BME280;5043;41.766;26.204;2023-05-03T03:09:13;101549.97;;;10.19;96.13
10008;BME280;5043;41.766;26.204;2023-05-03T03:11:39;101526.34;;;10.17;96.20
10008;BME280;5043;41.766;26.204;2023-05-03T03:14:05;101522.97;;;10.29;95.36
10008;BME280;5043;41.766;26.204;2023-05-03T03:16:31;101523.66;;;10.33;95.03
10008;BME280;5043;41.766;26.204;2023-05-03T03:18:56;101450.47;;;9.91;95.43
10008;BME280;5043;41.766;26.204;2023-05-03T03:21:22;101531.59;;;10.17;95.71
10008;BME280;5043;41.766;26.204;2023-05-03T03:23:47;101450.75;;;9.71;96.03
10008;BME280;5043;41.766;26.204;2023-05-03T03:26:13;101495.88;;;10.12;95.79
10008;BME280;5043;41.766;26.204;2023-05-03T03:28:39;101528.50;;;10.09;95.94
10008;BME280;5043;41.766;26.204;2023-05-03T03:31:05;101573.31;;;10.09;96.24
10008;BME280;5043;41.766;26.204;2023-05-03T03:33:30;101517.63;;;9.68;96.06
10008;BME280;5043;41.766;26.204;2023-05-03T03:35:56;101584.22;;;10.03;96.39
10008;BME280;5043;41.766;26.204;2023-05-03T03:38:21;101579.88;;;10.02;97.11
10008;BME280;5043;41.766;26.204;2023-05-03T03:40:47;101577.84;;;10.07;97.37
10008;BME280;5043;41.766;26.204;2023-05-03T03:43:12;101564.56;;;10.09;97.77
10008;BME280;5043;41.766;26.204;2023-05-03T03:45:38;101543.25;;;10.29;97.16
10008;BME280;5043;41.766;26.204;2023-05-03T03:48:03;101535.66;;;10.23;97.15
10008;BME280;5043;41.766;26.204;2023-05-03T03:50:29;101529.47;;;10.24;97.38
10008;BME280;5043;41.766;26.204;2023-05-03T03:52:54;101502.22;;;10.23;96.56
10008;BME280;5043;41.766;26.204;2023-05-03T03:55:20;101524.00;;;10.27;95.90
10008;BME280;5043;41.766;26.204;2023-05-03T03:57:45;101534.03;;;10.05;95.93
10008;BME280;5043;41.766;26.204;2023-05-03T04:00:11;101580.84;;;10.17;96.00
10008;BME280;5043;41.766;26.204;2023-05-03T04:02:37;101573.09;;;10.14;96.18
10008;BME280;5043;41.766;26.204;2023-05-03T04:05:02;101553.34;;;10.05;96.97
10008;BME280;5043;41.766;26.204;2023-05-03T04:07:28;101603.47;;;10.21;98.43
10008;BME280;5043;41.766;26.204;2023-05-03T04:09:55;101617.91;;;10.29;98.61
10008;BME280;5043;41.766;26.204;2023-05-03T04:12:21;101555.44;;;9.99;98.93
10008;BME280;5043;41.766;26.204;2023-05-03T04:14:46;101631.38;;;10.41;99.08
10008;BME280;5043;41.766;26.204;2023-05-03T04:17:12;101570.00;;;10.06;100.00
10008;BME280;5043;41.766;26.204;2023-05-03T04:19:37;101646.94;;;10.45;100.00
10008;BME280;5043;41.766;26.204;2023-05-03T04:22:03;101636.00;;;10.67;100.00
10008;BME280;5043;41.766;26.204;2023-05-03T04:24:29;101641.19;;;10.68;98.95
10008;BME280;5043;41.766;26.204;2023-05-03T04:26:55;101626.03;;;10.72;99.11
10008;BME280;5043;41.766;26.204;2023-05-03T04:29:21;101618.63;;;10.63;99.46
10008;BME280;5043;41.766;26.204;2023-05-03T04:31:47;101568.06;;;10.41;98.69
10008;BME280;5043;41.766;26.204;2023-05-03T04:34:12;101616.44;;;10.71;98.34
10008;BME280;5043;41.766;26.204;2023-05-03T04:36:41;101615.03;;;10.79;98.17
10008;BME280;5043;41.766;26.204;2023-05-03T04:39:07;101554.59;;;10.45;97.81
10008;BME280;5043;41.766;26.204;2023-05-03T04:41:33;101627.47;;;10.77;98.25
10008;BME280;5043;41.766;26.204;2023-05-03T04:43:58;101597.75;;;10.74;97.49
10008;BME280;5043;41.766;26.204;2023-05-03T04:46:24;101617.56;;;10.81;97.03
10008;BME280;5043;41.766;26.204;2023-05-03T04:48:49;101565.97;;;10.46;96.73
10008;BME280;5043;41.766;26.204;2023-05-03T04:51:15;101636.63;;;10.86;95.86
10008;BME280;5043;41.766;26.204;2023-05-03T04:53:40;101645.41;;;10.86;96.58
10008;BME280;5043;41.766;26.204;2023-05-03T04:56:07;101644.56;;;10.86;96.30
10008;BME280;5043;41.766;26.204;2023-05-03T04:58:33;101640.63;;;10.93;96.50
10008;BME280;5043;41.766;26.204;2023-05-03T05:00:58;101643.84;;;10.98;96.39
10008;BME280;5043;41.766;26.204;2023-05-03T05:03:23;101628.97;;;10.97;96.26
10008;BME280;5043;41.766;26.204;2023-05-03T05:05:49;101632.63;;;10.94;96.64
10008;BME280;5043;41.766;26.204;2023-05-03T05:08:15;101630.59;;;10.84;96.78
10008;BME280;5043;41.766;26.204;2023-05-03T05:10:41;101640.34;;;10.97;96.14
10008;BME280;5043;41.766;26.204;2023-05-03T05:13:06;101664.03;;;10.99;96.07
10008;BME280;5043;41.766;26.204;2023-05-03T05:15:32;101656.78;;;11.02;95.66
10008;BME280;5043;41.766;26.204;2023-05-03T05:17:58;101668.03;;;11.06;95.14
10008;BME280;5043;41.766;26.204;2023-05-03T05:20:24;101609.47;;;10.84;94.52
10008;BME280;5043;41.766;26.204;2023-05-03T05:22:49;101649.84;;;11.16;94.36
10008;BME280;5043;41.766;26.204;2023-05-03T05:25:15;101653.25;;;11.18;94.69
10008;BME280;5043;41.766;26.204;2023-05-03T05:27:40;101659.38;;;11.18;94.72
10008;BME280;5043;41.766;26.204;2023-05-03T05:30:06;101637.81;;;10.96;95.05
10008;BME280;5043;41.766;26.204;2023-05-03T05:32:32;101688.44;;;11.18;94.96
10008;BME280;5043;41.766;26.204;2023-05-03T05:34:57;101632.31;;;10.85;94.58
10008;BME280;5043;41.766;26.204;2023-05-03T05:37:24;101696.31;;;11.04;95.04
10008;BME280;5043;41.766;26.204;2023-05-03T05:39:50;101688.84;;;10.96;94.81
10008;BME280;5043;41.766;26.204;2023-05-03T05:42:16;101731.84;;;11.28;94.46
10008;BME280;5043;41.766;26.204;2023-05-03T05:44:41;101723.31;;;11.39;92.87
10008;BME280;5043;41.766;26.204;2023-05-03T05:47:08;101717.00;;;11.41;92.64
10008;BME280;5043;41.766;26.204;2023-05-03T05:49:33;101725.56;;;11.45;92.32
10008;BME280;5043;41.766;26.204;2023-05-03T05:51:59;101666.78;;;11.12;92.53
10008;BME280;5043;41.766;26.204;2023-05-03T05:54:25;101689.00;;;11.23;91.98
10008;BME280;5043;41.766;26.204;2023-05-03T05:56:50;101746.38;;;11.51;90.96
10008;BME280;5043;41.766;26.204;2023-05-03T05:59:16;101769.41;;;11.63;91.21
10008;BME280;5043;41.766;26.204;2023-05-03T06:01:41;101715.13;;;11.57;90.16
10008;BME280;5043;41.766;26.204;2023-05-03T06:04:11;101770.75;;;12.00;89.33
10008;BME280;5043;41.766;26.204;2023-05-03T06:06:36;101745.94;;;12.16;88.17
10008;BME280;5043;41.766;26.204;2023-05-03T06:09:02;101746.28;;;12.24;87.91
10008;BME280;5043;41.766;26.204;2023-05-03T06:11:28;101738.78;;;12.45;87.57
10008;BME280;5043;41.766;26.204;2023-05-03T06:13:54;101725.19;;;12.51;87.25
10008;BME280;5043;41.766;26.204;2023-05-03T06:16:20;101714.00;;;12.60;87.15
10008;BME280;5043;41.766;26.204;2023-05-03T06:18:46;101708.72;;;12.60;86.87
10008;BME280;5043;41.766;26.204;2023-05-03T06:21:11;101702.13;;;12.53;87.22
10008;BME280;5043;41.766;26.204;2023-05-03T06:23:36;101717.50;;;12.61;87.49
10008;BME280;5043;41.766;26.204;2023-05-03T06:26:05;101723.09;;;12.56;87.36
10008;BME280;5043;41.766;26.204;2023-05-03T06:28:31;101720.44;;;12.56;87.62
10008;BME280;5043;41.766;26.204;2023-05-03T06:30:56;101635.59;;;12.31;87.84
10008;BME280;5043;41.766;26.204;2023-05-03T06:33:22;101632.13;;;12.57;86.81
10008;BME280;5043;41.766;26.204;2023-05-03T06:35:47;101694.53;;;12.88;87.57
10008;BME280;5043;41.766;26.204;2023-05-03T06:38:13;101664.47;;;13.01;87.52
10008;BME280;5043;41.766;26.204;2023-05-03T06:40:39;101634.00;;;13.08;87.42
10008;BME280;5043;41.766;26.204;2023-05-03T06:43:06;101645.88;;;13.16;85.65
10008;BME280;5043;41.766;26.204;2023-05-03T06:45:32;101651.66;;;13.35;84.84
10008;BME280;5043;41.766;26.204;2023-05-03T06:47:57;101634.16;;;13.45;84.85
10008;BME280;5043;41.766;26.204;2023-05-03T06:50:23;101649.78;;;13.62;83.58
10008;BME280;5043;41.766;26.204;2023-05-03T06:52:49;101654.00;;;13.52;85.23
10008;BME280;5043;41.766;26.204;2023-05-03T06:55:15;101686.03;;;13.74;85.71
10008;BME280;5043;41.766;26.204;2023-05-03T06:57:41;101642.97;;;13.58;85.22
10008;BME280;5043;41.766;26.204;2023-05-03T07:00:07;101684.63;;;13.81;87.68
10008;BME280;5043;41.766;26.204;2023-05-03T07:02:33;101679.53;;;14.03;88.73
10008;BME280;5043;41.766;26.204;2023-05-03T07:04:58;101626.19;;;13.83;88.58
10008;BME280;5043;41.766;26.204;2023-05-03T07:07:24;101672.28;;;14.30;88.71
10008;BME280;5043;41.766;26.204;2023-05-03T07:09:49;101613.66;;;13.85;88.04
10008;BME280;5043;41.766;26.204;2023-05-03T07:12:15;101683.25;;;14.13;89.49
10008;BME280;5043;41.766;26.204;2023-05-03T07:14:41;101616.41;;;13.96;89.32
10008;BME280;5043;41.766;26.204;2023-05-03T07:17:07;101660.72;;;14.31;89.66
10008;BME280;5043;41.766;26.204;2023-05-03T07:19:32;101682.59;;;14.59;88.11
10008;BME280;5043;41.766;26.204;2023-05-03T07:21:58;101683.63;;;14.69;87.07
10008;BME280;5043;41.766;26.204;2023-05-03T07:24:23;101624.78;;;14.51;85.16
10008;BME280;5043;41.766;26.204;2023-05-03T07:26:51;101676.22;;;15.08;83.44
10008;BME280;5043;41.766;26.204;2023-05-03T07:29:16;101651.75;;;15.27;82.35
10008;BME280;5043;41.766;26.204;2023-05-03T07:31:42;101677.59;;;15.49;79.43
10008;BME280;5043;41.766;26.204;2023-05-03T07:34:09;101649.41;;;15.57;79.82
10008;BME280;5043;41.766;26.204;2023-05-03T07:36:34;101595.56;;;15.43;78.57
10008;BME280;5043;41.766;26.204;2023-05-03T07:39:00;101658.28;;;15.91;77.16
10008;BME280;5043;41.766;26.204;2023-05-03T07:41:25;101657.91;;;16.07;76.12
10008;BME280;5043;41.766;26.204;2023-05-03T07:43:51;101634.53;;;16.21;74.72
10008;BME280;5043;41.766;26.204;2023-05-03T07:46:17;101660.25;;;16.76;72.74
10008;BME280;5043;41.766;26.204;2023-05-03T07:48:42;101636.34;;;17.06;71.75
10008;BME280;5043;41.766;26.204;2023-05-03T07:51:07;101635.31;;;17.18;69.85
10008;BME280;5043;41.766;26.204;2023-05-03T07:53:33;101642.72;;;17.36;68.28
10008;BME280;5043;41.766;26.204;2023-05-03T07:55:59;101570.94;;;17.23;68.04
10008;BME280;5043;41.766;26.204;2023-05-03T07:58:25;101627.50;;;17.98;65.39
10008;BME280;5043;41.766;26.204;2023-05-03T08:00:51;101625.25;;;18.03;64.21
10008;BME280;5043;41.766;26.204;2023-05-03T08:03:16;101614.22;;;17.87;65.18
10008;BME280;5043;41.766;26.204;2023-05-03T08:05:42;101631.44;;;18.04;61.42
10008;BME280;5043;41.766;26.204;2023-05-03T08:08:08;101641.25;;;18.03;60.41
10008;BME280;5043;41.766;26.204;2023-05-03T08:10:34;101628.66;;;18.15;59.57
10008;BME280;5043;41.766;26.204;2023-05-03T08:13:03;101625.28;;;18.13;60.09
10008;BME280;5043;41.766;26.204;2023-05-03T08:15:30;101617.13;;;18.05;62.35
10008;BME280;5043;41.766;26.204;2023-05-03T08:17:55;101566.16;;;17.87;59.27
10008;BME280;5043;41.766;26.204;2023-05-03T08:20:21;101603.66;;;18.25;56.63
10008;BME280;5043;41.766;26.204;2023-05-03T08:22:47;101534.81;;;17.79;54.81
10008;BME280;5043;41.766;26.204;2023-05-03T08:25:13;101585.91;;;18.05;56.91
10008;BME280;5043;41.766;26.204;2023-05-03T08:27:41;101578.13;;;17.93;56.42
10008;BME280;5043;41.766;26.204;2023-05-03T08:30:06;101589.56;;;18.04;58.27
10008;BME280;5043;41.766;26.204;2023-05-03T08:32:32;101578.34;;;18.20;58.24
10008;BME280;5043;41.766;26.204;2023-05-03T08:34:58;101568.81;;;18.36;57.67
10008;BME280;5043;41.766;26.204;2023-05-03T08:37:24;101578.69;;;18.45;56.21
10008;BME280;5043;41.766;26.204;2023-05-03T08:39:49;101537.88;;;18.43;53.63
10008;BME280;5043;41.766;26.204;2023-05-03T08:42:15;101593.34;;;18.70;54.37
10008;BME280;5043;41.766;26.204;2023-05-03T08:44:47;101577.56;;;18.86;52.77
10008;BME280;5043;41.766;26.204;2023-05-03T08:47:13;101578.13;;;18.90;51.82
10008;BME280;5043;41.766;26.204;2023-05-03T08:49:40;101529.16;;;18.41;51.22
10008;BME280;5043;41.766;26.204;2023-05-03T08:52:08;101498.91;;;18.31;50.40
10008;BME280;5043;41.766;26.204;2023-05-03T08:54:34;101566.03;;;18.86;50.02
10008;BME280;5043;41.766;26.204;2023-05-03T08:57:00;101544.88;;;19.02;49.60
10008;BME280;5043;41.766;26.204;2023-05-03T08:59:26;101538.59;;;19.30;47.65
10008;BME280;5043;41.766;26.204;2023-05-03T09:01:53;101571.41;;;19.51;45.56
10008;BME280;5043;41.766;26.204;2023-05-03T09:04:19;101596.03;;;19.64;45.56
10008;BME280;5043;41.766;26.204;2023-05-03T09:06:45;101587.91;;;19.47;45.37
10008;BME280;5043;41.766;26.204;2023-05-03T09:09:10;101585.13;;;19.39;47.21
10008;BME280;5043;41.766;26.204;2023-05-03T09:11:37;101595.66;;;19.77;47.07
10008;BME280;5043;41.766;26.204;2023-05-03T09:14:17;101592.09;;;19.59;42.45
10008;BME280;5043;41.766;26.204;2023-05-03T09:16:44;101615.09;;;19.79;43.77
10008;BME280;5043;41.766;26.204;2023-05-03T09:19:12;101598.25;;;19.69;41.71
10008;BME280;5043;41.766;26.204;2023-05-03T09:21:39;101602.38;;;19.90;42.06
10008;BME280;5043;41.766;26.204;2023-05-03T09:26:38;101584.97;;;19.31;42.78
10008;BME280;5043;41.766;26.204;2023-05-03T09:29:05;101547.00;;;19.08;43.01
10008;BME280;5043;41.766;26.204;2023-05-03T09:31:31;101583.41;;;19.38;41.66
10008;BME280;5043;41.766;26.204;2023-05-03T09:33:57;101583.41;;;19.28;39.94
10008;BME280;5043;41.766;26.204;2023-05-03T09:36:23;101535.97;;;19.11;39.14
10008;BME280;5043;41.766;26.204;2023-05-03T09:38:50;101563.56;;;19.31;39.36
10008;BME280;5043;41.766;26.204;2023-05-03T09:41:29;101525.81;;;19.34;41.50
10008;BME280;5043;41.766;26.204;2023-05-03T09:43:56;101598.53;;;19.66;40.47
10008;BME280;5043;41.766;26.204;2023-05-03T09:46:27;101602.41;;;19.44;40.92
10008;BME280;5043;41.766;26.204;2023-05-03T09:48:54;101610.75;;;19.22;41.70
10008;BME280;5043;41.766;26.204;2023-05-03T09:51:24;101586.56;;;18.95;42.90
10008;BME280;5043;41.766;26.204;2023-05-03T09:53:50;101585.31;;;18.89;41.69
10008;BME280;5043;41.766;26.204;2023-05-03T09:56:15;101600.94;;;18.65;42.30
10008;BME280;5043;41.766;26.204;2023-05-03T09:58:42;101622.75;;;18.70;42.58
10008;BME280;5043;41.766;26.204;2023-05-03T10:01:09;101561.81;;;18.54;43.00
10008;BME280;5043;41.766;26.204;2023-05-03T10:03:41;101564.88;;;18.21;45.23
10008;BME280;5043;41.766;26.204;2023-05-03T10:08:51;101601.84;;;18.26;45.50
10008;BME280;5043;41.766;26.204;2023-05-03T10:11:18;101539.81;;;18.13;44.38
10008;BME280;5043;41.766;26.204;2023-05-03T10:13:44;101595.53;;;18.36;44.86
10008;BME280;5043;41.766;26.204;2023-05-03T10:16:17;101580.75;;;18.32;47.46
10008;BME280;5043;41.766;26.204;2023-05-03T10:19:14;101569.19;;;18.22;51.77
10008;BME280;5043;41.766;26.204;2023-05-03T10:22:02;101542.06;;;18.27;53.46
10008;BME280;5043;41.766;26.204;2023-05-03T10:24:30;101525.19;;;18.26;55.71
10008;BME280;5043;41.766;26.204;2023-05-03T10:26:56;101525.19;;;18.07;56.02
10008;BME280;5043;41.766;26.204;2023-05-03T10:32:03;101541.09;;;18.37;53.86
10008;BME280;5043;41.766;26.204;2023-05-03T10:34:31;101561.41;;;18.59;51.38
10008;BME280;5043;41.766;26.204;2023-05-03T10:37:01;101553.78;;;18.93;48.90
10008;BME280;5043;41.766;26.204;2023-05-03T10:39:28;101551.84;;;19.41;46.60
10008;BME280;5043;41.766;26.204;2023-05-03T10:41:58;101552.81;;;19.77;45.70
10008;BME280;5043;41.766;26.204;2023-05-03T10:44:32;101559.31;;;19.74;42.35
10008;BME280;5043;41.766;26.204;2023-05-03T10:47:12;101580.66;;;20.21;38.97
10008;BME280;5043;41.766;26.204;2023-05-03T10:49:37;101578.84;;;20.12;36.65
10008;BME280;5043;41.766;26.204;2023-05-03T10:55:20;101580.59;;;20.03;35.94
10008;BME280;5043;41.766;26.204;2023-05-03T10:57:47;101605.28;;;20.07;37.24
10008;BME280;5043;41.766;26.204;2023-05-03T11:00:18;101584.09;;;19.76;36.69
10008;BME280;5043;41.766;26.204;2023-05-03T11:05:50;101573.19;;;19.60;37.94
10008;BME280;5043;41.766;26.204;2023-05-03T11:08:18;101545.78;;;19.30;38.66
10008;BME280;5043;41.766;26.204;2023-05-03T11:10:45;101582.81;;;19.44;38.77
10008;BME280;5043;41.766;26.204;2023-05-03T11:13:12;101581.31;;;19.32;39.48
10008;BME280;5043;41.766;26.204;2023-05-03T11:15:38;101593.28;;;19.18;40.11
10008;BME280;5043;41.766;26.204;2023-05-03T11:18:08;101575.28;;;19.20;41.03
10008;BME280;5043;41.766;26.204;2023-05-03T11:20:36;101588.75;;;19.28;41.29
10008;BME280;5043;41.766;26.204;2023-05-03T11:23:03;101530.81;;;19.00;42.42
10008;BME280;5043;41.766;26.204;2023-05-03T11:25:29;101541.50;;;19.09;43.43
10008;BME280;5043;41.766;26.204;2023-05-03T11:27:55;101551.06;;;19.12;43.42
10008;BME280;5043;41.766;26.204;2023-05-03T11:30:21;101571.78;;;19.00;44.41
10008;BME280;5043;41.766;26.204;2023-05-03T11:32:47;101549.44;;;18.92;44.45
10008;BME280;5043;41.766;26.204;2023-05-03T11:35:12;101520.72;;;18.65;46.05
10008;BME280;5043;41.766;26.204;2023-05-03T11:37:41;101522.44;;;18.57;47.79
10008;BME280;5043;41.766;26.204;2023-05-03T11:40:12;101519.03;;;18.35;49.55
10008;BME280;5043;41.766;26.204;2023-05-03T11:42:53;101483.84;;;18.11;50.56
10008;BME280;5043;41.766;26.204;2023-05-03T11:45:29;101485.00;;;18.18;52.29
10008;BME280;5043;41.766;26.204;2023-05-03T11:47:56;101481.63;;;18.16;53.35
10008;BME280;5043;41.766;26.204;2023-05-03T11:50:44;101513.97;;;18.42;55.82
10008;BME280;5043;41.766;26.204;2023-05-03T11:53:14;101497.34;;;18.38;59.00
10008;BME280;5043;41.766;26.204;2023-05-03T11:55:41;101422.97;;;18.24;60.27
10008;BME280;5043;41.766;26.204;2023-05-03T11:58:12;101463.06;;;18.53;61.70
10008;BME280;5043;41.766;26.204;2023-05-03T12:00:37;101465.28;;;18.77;61.66
10008;BME280;5043;41.766;26.204;2023-05-03T12:03:04;101475.69;;;18.80;61.41
10008;BME280;5043;41.766;26.204;2023-05-03T12:05:32;101496.72;;;19.11;60.59
10008;BME280;5043;41.766;26.204;2023-05-03T12:07:58;101490.38;;;19.12;59.36
10008;BME280;5043;41.766;26.204;2023-05-03T12:10:30;101503.13;;;19.28;59.04
10008;BME280;5043;41.766;26.204;2023-05-03T12:12:57;101505.75;;;19.10;58.60
10008;BME280;5043;41.766;26.204;2023-05-03T12:15:28;101460.06;;;18.85;53.87
10008;BME280;5043;41.766;26.204;2023-05-03T12:17:58;101467.78;;;18.88;54.30
10008;BME280;5043;41.766;26.204;2023-05-03T12:20:25;101481.56;;;18.93;56.78
10008;BME280;5043;41.766;26.204;2023-05-03T12:22:58;101480.69;;;19.02;58.16
10008;BME280;5043;41.766;26.204;2023-05-03T12:25:24;101472.09;;;19.08;59.64
10008;BME280;5043;41.766;26.204;2023-05-03T12:27:53;101418.47;;;19.00;63.08
10008;BME280;5043;41.766;26.204;2023-05-03T12:30:22;101445.50;;;19.43;63.59
10008;BME280;5043;41.766;26.204;2023-05-03T12:32:48;101451.09;;;19.50;63.12
10008;BME280;5043;41.766;26.204;2023-05-03T12:35:14;101450.63;;;19.54;64.89
10008;BME280;5043;41.766;26.204;2023-05-03T12:37:41;101447.22;;;19.62;60.32
10008;BME280;5043;41.766;26.204;2023-05-03T12:40:07;101434.53;;;19.64;57.76
10008;BME280;5043;41.766;26.204;2023-05-03T12:42:33;101428.66;;;19.51;57.86
10008;BME280;5043;41.766;26.204;2023-05-03T12:44:59;101409.63;;;19.54;57.38
10008;BME280;5043;41.766;26.204;2023-05-03T12:47:26;101402.28;;;19.29;57.44
10008;BME280;5043;41.766;26.204;2023-05-03T12:49:52;101374.81;;;19.36;56.29
10008;BME280;5043;41.766;26.204;2023-05-03T12:52:21;101404.38;;;19.62;55.96
10008;BME280;5043;41.766;26.204;2023-05-03T12:54:48;101395.03;;;19.66;57.42
10008;BME280;5043;41.766;26.204;2023-05-03T12:57:14;101363.91;;;19.82;57.05
10008;BME280;5043;41.766;26.204;2023-05-03T12:59:40;101376.34;;;20.09;56.06
10008;BME280;5043;41.766;26.204;2023-05-03T13:02:09;101376.44;;;20.35;52.03
10008;BME280;5043;41.766;26.204;2023-05-03T13:04:35;101370.06;;;20.62;52.13
10008;BME280;5043;41.766;26.204;2023-05-03T13:07:01;101323.41;;;20.46;50.52
10008;BME280;5043;41.766;26.204;2023-05-03T13:09:28;101346.47;;;20.65;51.46